Crest Hill, IL (60403)

7:04 PM CDT on May 03, 2015 (GMT -0500)
Warwick Subdivision, Joliet, IL | | Change Station
CLOSE
Current Station
Personal Weather Station
Location: Joliet, IL
Elevation: 591 ft
Nearby Weather Stations

Elev 591 ft 41.55 °N, 88.15 °W | Updated 3 minutes ago

Overcast
Overcast
71.4 °F
Feels Like 77 °F
N
2.0
Wind Variable Wind from SE
Gusts 2.0 mph

Today
High -- | Low -- °F
--% Chance of Precip.
Yesterday
High -- | Low -- °F
Precip. -- in
5:47 AM 7:52 PM
Full, 100% visible
Pressure 29.91 in
Visibility 10.0 miles
Clouds Mostly Cloudy 9000 ft
Overcast 11000 ft
Heat Index 77 °F
Dew Point 54 °F
Humidity 53%
Rainfall 0.00 in
Snow Depth Not available.
UV 0 out of 12
Pollen 10.80 out of 12
Air Quality Not available.
Flu Activity Local Activity
METAR KJOT 032335Z AUTO 18003KT 10SM -RA BKN090 OVC110 24/11 A2991 RMK AO2 LTG DSNT NW T02400108

More Conditions Fewer Conditions

Pressure 29.91 in
Visibility 10.0 miles
Clouds Mostly Cloudy 9000 ft
Overcast 11000 ft
Heat Index 77 °F
Dew Point 54 °F
Humidity 53%
Rainfall 0.00 in
Snow Depth Not available.
UV 0 out of 12
Pollen 10.80 out of 12
Air Quality Not available.
Flu Activity Local Activity
METAR KJOT 032335Z AUTO 18003KT 10SM -RA BKN090 OVC110 24/11 A2991 RMK AO2 LTG DSNT NW T02400108

More Conditions Fewer Conditions

Nepal has a long way to go to dig out and rebuild from a devastating earthquake. We have teamed up with several charities and organizations to make contributing to the relief effort as easy as possible.
How you can help: Portlight Strategies | Red Cross

10-Day Weather Forecast

Almanac

Astronomy

May. 03, 2015 Rise Set
Actual Time
Civil Twilight
Nautical Twilight
Astronomical Twilight
Moon
Length of Visible Light
Length of Day
Tomorrow will be .
, % of the Moon is Illuminated

Today's Extremes

State Highs State Lows

Community

WunderPhotos

Upload Photos

1,818,426 photos uploaded!

WunderBlogs® & News

Nearby

Air Quality

  Air Quality AQ Index Pollutant
Not available.

Snow Depth

Station Depth Elevation

Earthquake Activity

City Distance Mag. Time & Date
Minimum magnitude displayed is 2.5.

Coastal Water Temperatures

Place Temperature

Stations

Nearby Weather Stations

Station Location Temp. Windchill Dew Point Humidity Wind Precip. Elev Updated Type